sensor_id;sensor_type;location;lat;lon;timestamp;P1;durP1;ratioP1;P2;durP2;ratioP2
5710;SDS011;61291;52.524;13.422;2023-05-10T00:01:29;65.63;;;61.33;;
5710;SDS011;61291;52.524;13.422;2023-05-10T00:03:54;66.67;;;61.87;;
5710;SDS011;61291;52.524;13.422;2023-05-10T00:06:20;65.57;;;61.13;;
5710;SDS011;61291;52.524;13.422;2023-05-10T00:08:45;68.03;;;62.30;;
5710;SDS011;61291;52.524;13.422;2023-05-10T00:11:11;67.20;;;62.40;;
5710;SDS011;61291;52.524;13.422;2023-05-10T00:13:36;66.17;;;61.77;;
5710;SDS011;61291;52.524;13.422;2023-05-10T00:16:02;67.93;;;63.10;;
5710;SDS011;61291;52.524;13.422;2023-05-10T00:18:27;66.90;;;62.40;;
5710;SDS011;61291;52.524;13.422;2023-05-10T00:20:53;66.10;;;61.43;;
5710;SDS011;61291;52.524;13.422;2023-05-10T00:23:18;65.90;;;61.30;;
5710;SDS011;61291;52.524;13.422;2023-05-10T00:25:44;65.70;;;61.03;;
5710;SDS011;61291;52.524;13.422;2023-05-10T00:28:09;66.13;;;61.60;;
5710;SDS011;61291;52.524;13.422;2023-05-10T00:30:34;65.93;;;61.33;;
5710;SDS011;61291;52.524;13.422;2023-05-10T00:33:00;69.37;;;64.63;;
5710;SDS011;61291;52.524;13.422;2023-05-10T00:35:25;67.20;;;62.20;;
5710;SDS011;61291;52.524;13.422;2023-05-10T00:37:51;64.80;;;60.13;;
5710;SDS011;61291;52.524;13.422;2023-05-10T00:40:17;65.00;;;60.57;;
5710;SDS011;61291;52.524;13.422;2023-05-10T00:42:42;65.67;;;61.13;;
5710;SDS011;61291;52.524;13.422;2023-05-10T00:45:08;65.23;;;60.23;;
5710;SDS011;61291;52.524;13.422;2023-05-10T00:47:33;66.50;;;61.70;;
5710;SDS011;61291;52.524;13.422;2023-05-10T00:49:59;66.27;;;61.47;;
5710;SDS011;61291;52.524;13.422;2023-05-10T00:52:25;65.13;;;60.33;;
5710;SDS011;61291;52.524;13.422;2023-05-10T00:54:52;65.43;;;61.13;;
5710;SDS011;61291;52.524;13.422;2023-05-10T00:57:18;65.63;;;61.10;;
5710;SDS011;61291;52.524;13.422;2023-05-10T00:59:44;64.70;;;60.10;;
5710;SDS011;61291;52.524;13.422;2023-05-10T01:02:10;67.33;;;62.43;;
5710;SDS011;61291;52.524;13.422;2023-05-10T01:04:36;65.33;;;60.70;;
5710;SDS011;61291;52.524;13.422;2023-05-10T01:07:03;66.60;;;61.80;;
5710;SDS011;61291;52.524;13.422;2023-05-10T01:09:28;66.00;;;61.60;;
5710;SDS011;61291;52.524;13.422;2023-05-10T01:11:54;65.27;;;60.60;;
5710;SDS011;61291;52.524;13.422;2023-05-10T01:14:20;64.97;;;60.63;;
5710;SDS011;61291;52.524;13.422;2023-05-10T01:16:47;66.40;;;61.60;;
5710;SDS011;61291;52.524;13.422;2023-05-10T01:19:24;64.97;;;60.47;;
5710;SDS011;61291;52.524;13.422;2023-05-10T01:22:02;66.57;;;62.27;;
5710;SDS011;61291;52.524;13.422;2023-05-10T01:27:41;68.63;;;63.83;;
5710;SDS011;61291;52.524;13.422;2023-05-10T01:38:40;66.07;;;61.77;;
5710;SDS011;61291;52.524;13.422;2023-05-10T01:41:54;67.70;;;63.20;;
5710;SDS011;61291;52.524;13.422;2023-05-10T01:44:17;67.13;;;62.50;;
5710;SDS011;61291;52.524;13.422;2023-05-10T01:46:51;68.53;;;63.70;;
5710;SDS011;61291;52.524;13.422;2023-05-10T01:49:25;68.47;;;63.63;;
5710;SDS011;61291;52.524;13.422;2023-05-10T01:51:54;68.40;;;63.47;;
5710;SDS011;61291;52.524;13.422;2023-05-10T01:54:25;68.27;;;63.57;;
5710;SDS011;61291;52.524;13.422;2023-05-10T01:56:58;68.50;;;63.30;;
5710;SDS011;61291;52.524;13.422;2023-05-10T01:59:29;67.50;;;63.00;;
5710;SDS011;61291;52.524;13.422;2023-05-10T02:02:01;66.40;;;61.80;;
5710;SDS011;61291;52.524;13.422;2023-05-10T02:04:27;68.27;;;63.80;;
5710;SDS011;61291;52.524;13.422;2023-05-10T02:06:53;68.90;;;63.63;;
5710;SDS011;61291;52.524;13.422;2023-05-10T02:09:20;69.90;;;65.10;;
5710;SDS011;61291;52.524;13.422;2023-05-10T02:11:48;70.57;;;65.53;;
5710;SDS011;61291;52.524;13.422;2023-05-10T02:14:15;76.03;;;70.80;;
5710;SDS011;61291;52.524;13.422;2023-05-10T02:16:41;74.07;;;68.87;;
5710;SDS011;61291;52.524;13.422;2023-05-10T02:19:08;72.60;;;67.90;;
5710;SDS011;61291;52.524;13.422;2023-05-10T02:21:37;74.67;;;69.40;;
5710;SDS011;61291;52.524;13.422;2023-05-10T02:24:04;76.90;;;71.90;;
5710;SDS011;61291;52.524;13.422;2023-05-10T02:26:31;73.57;;;68.50;;
5710;SDS011;61291;52.524;13.422;2023-05-10T02:28:58;72.20;;;67.40;;
5710;SDS011;61291;52.524;13.422;2023-05-10T02:31:28;72.40;;;67.43;;
5710;SDS011;61291;52.524;13.422;2023-05-10T02:33:55;71.60;;;66.80;;
5710;SDS011;61291;52.524;13.422;2023-05-10T02:36:22;70.83;;;65.93;;
5710;SDS011;61291;52.524;13.422;2023-05-10T02:38:48;77.70;;;72.50;;
5710;SDS011;61291;52.524;13.422;2023-05-10T02:41:15;71.00;;;66.20;;
5710;SDS011;61291;52.524;13.422;2023-05-10T02:43:42;72.00;;;67.27;;
5710;SDS011;61291;52.524;13.422;2023-05-10T02:46:09;72.90;;;68.10;;
5710;SDS011;61291;52.524;13.422;2023-05-10T02:48:34;74.30;;;69.20;;
5710;SDS011;61291;52.524;13.422;2023-05-10T02:51:00;69.77;;;64.97;;
5710;SDS011;61291;52.524;13.422;2023-05-10T02:53:31;71.30;;;66.53;;
5710;SDS011;61291;52.524;13.422;2023-05-10T02:55:58;69.88;;;64.80;;
5710;SDS011;61291;52.524;13.422;2023-05-10T02:58:26;70.37;;;65.57;;
5710;SDS011;61291;52.524;13.422;2023-05-10T03:00:52;71.70;;;66.77;;
5710;SDS011;61291;52.524;13.422;2023-05-10T03:03:17;75.67;;;70.20;;
5710;SDS011;61291;52.524;13.422;2023-05-10T03:05:44;73.90;;;68.67;;
5710;SDS011;61291;52.524;13.422;2023-05-10T03:08:10;73.50;;;68.10;;
5710;SDS011;61291;52.524;13.422;2023-05-10T03:10:38;70.97;;;66.07;;
5710;SDS011;61291;52.524;13.422;2023-05-10T03:13:44;68.40;;;63.70;;
5710;SDS011;61291;52.524;13.422;2023-05-10T03:16:23;71.40;;;66.40;;
5710;SDS011;61291;52.524;13.422;2023-05-10T03:19:04;72.07;;;66.80;;
5710;SDS011;61291;52.524;13.422;2023-05-10T03:21:36;67.43;;;62.50;;
5710;SDS011;61291;52.524;13.422;2023-05-10T03:24:07;70.37;;;65.40;;
5710;SDS011;61291;52.524;13.422;2023-05-10T03:26:33;56.03;;;51.93;;
5710;SDS011;61291;52.524;13.422;2023-05-10T03:28:59;71.40;;;66.20;;
5710;SDS011;61291;52.524;13.422;2023-05-10T03:31:25;67.70;;;62.93;;
5710;SDS011;61291;52.524;13.422;2023-05-10T03:33:52;74.10;;;69.43;;
5710;SDS011;61291;52.524;13.422;2023-05-10T03:36:18;72.47;;;67.37;;
5710;SDS011;61291;52.524;13.422;2023-05-10T03:38:44;72.40;;;67.40;;
5710;SDS011;61291;52.524;13.422;2023-05-10T03:41:10;70.47;;;65.70;;
5710;SDS011;61291;52.524;13.422;2023-05-10T03:43:36;73.43;;;68.43;;
5710;SDS011;61291;52.524;13.422;2023-05-10T03:46:04;70.17;;;65.43;;
5710;SDS011;61291;52.524;13.422;2023-05-10T03:48:30;68.47;;;63.90;;
5710;SDS011;61291;52.524;13.422;2023-05-10T03:50:57;68.37;;;63.20;;
5710;SDS011;61291;52.524;13.422;2023-05-10T03:53:22;75.00;;;69.70;;
5710;SDS011;61291;52.524;13.422;2023-05-10T03:55:48;70.63;;;65.67;;
5710;SDS011;61291;52.524;13.422;2023-05-10T03:58:13;66.47;;;61.90;;
5710;SDS011;61291;52.524;13.422;2023-05-10T04:00:39;69.50;;;64.80;;
5710;SDS011;61291;52.524;13.422;2023-05-10T04:03:08;55.63;;;51.67;;
5710;SDS011;61291;52.524;13.422;2023-05-10T04:05:35;67.33;;;62.30;;
5710;SDS011;61291;52.524;13.422;2023-05-10T04:08:00;65.53;;;60.90;;
5710;SDS011;61291;52.524;13.422;2023-05-10T04:10:26;65.87;;;60.77;;
5710;SDS011;61291;52.524;13.422;2023-05-10T04:12:52;65.93;;;61.53;;
5710;SDS011;61291;52.524;13.422;2023-05-10T04:15:17;63.67;;;59.07;;
5710;SDS011;61291;52.524;13.422;2023-05-10T04:17:43;65.37;;;61.00;;
5710;SDS011;61291;52.524;13.422;2023-05-10T04:20:08;65.53;;;61.30;;
5710;SDS011;61291;52.524;13.422;2023-05-10T04:22:34;65.87;;;61.27;;
5710;SDS011;61291;52.524;13.422;2023-05-10T04:25:00;66.63;;;61.73;;
5710;SDS011;61291;52.524;13.422;2023-05-10T04:27:25;66.60;;;62.20;;
5710;SDS011;61291;52.524;13.422;2023-05-10T04:29:51;68.87;;;63.43;;
5710;SDS011;61291;52.524;13.422;2023-05-10T04:32:16;65.93;;;61.53;;
5710;SDS011;61291;52.524;13.422;2023-05-10T04:34:43;66.17;;;61.07;;
5710;SDS011;61291;52.524;13.422;2023-05-10T04:37:08;75.47;;;69.87;;
5710;SDS011;61291;52.524;13.422;2023-05-10T04:39:34;68.17;;;63.40;;
5710;SDS011;61291;52.524;13.422;2023-05-10T04:42:00;71.10;;;66.20;;
5710;SDS011;61291;52.524;13.422;2023-05-10T04:44:27;72.10;;;65.70;;
5710;SDS011;61291;52.524;13.422;2023-05-10T04:46:53;69.80;;;64.15;;
5710;SDS011;61291;52.524;13.422;2023-05-10T04:49:19;72.10;;;67.30;;
5710;SDS011;61291;52.524;13.422;2023-05-10T04:51:44;68.00;;;63.40;;
5710;SDS011;61291;52.524;13.422;2023-05-10T04:54:10;69.37;;;64.20;;
5710;SDS011;61291;52.524;13.422;2023-05-10T04:56:35;63.70;;;59.20;;
5710;SDS011;61291;52.524;13.422;2023-05-10T04:59:01;69.20;;;64.20;;
5710;SDS011;61291;52.524;13.422;2023-05-10T05:01:26;68.60;;;63.90;;
5710;SDS011;61291;52.524;13.422;2023-05-10T05:03:52;67.87;;;62.63;;
5710;SDS011;61291;52.524;13.422;2023-05-10T05:06:17;69.57;;;64.80;;
5710;SDS011;61291;52.524;13.422;2023-05-10T05:08:43;73.83;;;67.80;;
5710;SDS011;61291;52.524;13.422;2023-05-10T05:11:08;67.47;;;62.40;;
5710;SDS011;61291;52.524;13.422;2023-05-10T05:13:34;64.00;;;58.60;;
5710;SDS011;61291;52.524;13.422;2023-05-10T05:16:00;69.27;;;63.57;;
5710;SDS011;61291;52.524;13.422;2023-05-10T05:18:27;68.90;;;62.90;;
5710;SDS011;61291;52.524;13.422;2023-05-10T05:20:53;64.60;;;60.30;;
5710;SDS011;61291;52.524;13.422;2023-05-10T05:23:18;66.10;;;61.40;;
5710;SDS011;61291;52.524;13.422;2023-05-10T05:25:45;67.37;;;62.50;;
5710;SDS011;61291;52.524;13.422;2023-05-10T05:28:11;62.13;;;57.47;;
5710;SDS011;61291;52.524;13.422;2023-05-10T05:30:37;69.33;;;64.03;;
5710;SDS011;61291;52.524;13.422;2023-05-10T05:33:02;66.00;;;61.60;;
5710;SDS011;61291;52.524;13.422;2023-05-10T05:35:28;69.87;;;64.20;;
5710;SDS011;61291;52.524;13.422;2023-05-10T05:37:54;68.73;;;63.83;;
5710;SDS011;61291;52.524;13.422;2023-05-10T05:40:19;69.37;;;64.33;;
5710;SDS011;61291;52.524;13.422;2023-05-10T05:42:45;66.33;;;59.90;;
5710;SDS011;61291;52.524;13.422;2023-05-10T05:45:11;67.90;;;62.67;;
5710;SDS011;61291;52.524;13.422;2023-05-10T05:47:38;68.80;;;64.07;;
5710;SDS011;61291;52.524;13.422;2023-05-10T05:50:04;68.20;;;62.60;;
5710;SDS011;61291;52.524;13.422;2023-05-10T05:52:30;63.97;;;59.53;;
5710;SDS011;61291;52.524;13.422;2023-05-10T05:54:56;64.17;;;59.50;;
5710;SDS011;61291;52.524;13.422;2023-05-10T05:57:21;76.50;;;70.87;;
5710;SDS011;61291;52.524;13.422;2023-05-10T05:59:47;74.13;;;68.40;;
5710;SDS011;61291;52.524;13.422;2023-05-10T06:02:13;71.67;;;66.57;;
5710;SDS011;61291;52.524;13.422;2023-05-10T06:04:39;71.63;;;66.53;;
5710;SDS011;61291;52.524;13.422;2023-05-10T06:07:04;67.10;;;62.27;;
5710;SDS011;61291;52.524;13.422;2023-05-10T06:09:30;71.27;;;64.70;;
5710;SDS011;61291;52.524;13.422;2023-05-10T06:11:55;68.10;;;63.10;;
5710;SDS011;61291;52.524;13.422;2023-05-10T06:14:21;71.63;;;66.93;;
5710;SDS011;61291;52.524;13.422;2023-05-10T06:16:47;76.10;;;70.30;;
5710;SDS011;61291;52.524;13.422;2023-05-10T06:19:12;73.97;;;68.40;;
5710;SDS011;61291;52.524;13.422;2023-05-10T06:21:38;71.13;;;66.03;;
5710;SDS011;61291;52.524;13.422;2023-05-10T06:24:03;73.57;;;67.90;;
5710;SDS011;61291;52.524;13.422;2023-05-10T06:26:31;67.07;;;62.30;;
5710;SDS011;61291;52.524;13.422;2023-05-10T06:28:57;73.17;;;67.80;;
5710;SDS011;61291;52.524;13.422;2023-05-10T06:31:22;69.93;;;64.40;;
5710;SDS011;61291;52.524;13.422;2023-05-10T06:33:48;66.43;;;61.73;;
5710;SDS011;61291;52.524;13.422;2023-05-10T06:36:13;75.63;;;69.10;;
5710;SDS011;61291;52.524;13.422;2023-05-10T06:38:39;73.50;;;67.63;;
5710;SDS011;61291;52.524;13.422;2023-05-10T06:41:05;66.83;;;61.40;;
5710;SDS011;61291;52.524;13.422;2023-05-10T06:43:30;72.77;;;65.43;;
5710;SDS011;61291;52.524;13.422;2023-05-10T06:45:56;69.77;;;64.53;;
5710;SDS011;61291;52.524;13.422;2023-05-10T06:48:21;70.30;;;65.23;;
5710;SDS011;61291;52.524;13.422;2023-05-10T06:50:47;70.03;;;64.70;;
5710;SDS011;61291;52.524;13.422;2023-05-10T06:53:12;73.30;;;67.70;;
5710;SDS011;61291;52.524;13.422;2023-05-10T06:55:38;70.37;;;64.27;;
5710;SDS011;61291;52.524;13.422;2023-05-10T06:58:04;67.40;;;62.30;;
5710;SDS011;61291;52.524;13.422;2023-05-10T07:00:30;73.13;;;68.10;;
5710;SDS011;61291;52.524;13.422;2023-05-10T07:02:55;74.97;;;69.17;;
5710;SDS011;61291;52.524;13.422;2023-05-10T07:05:21;78.10;;;71.63;;
5710;SDS011;61291;52.524;13.422;2023-05-10T07:07:46;74.20;;;68.57;;
5710;SDS011;61291;52.524;13.422;2023-05-10T07:10:12;70.03;;;64.87;;
5710;SDS011;61291;52.524;13.422;2023-05-10T07:12:38;63.30;;;57.90;;
5710;SDS011;61291;52.524;13.422;2023-05-10T07:15:04;75.83;;;69.10;;
5710;SDS011;61291;52.524;13.422;2023-05-10T07:17:29;73.10;;;67.80;;
5710;SDS011;61291;52.524;13.422;2023-05-10T07:19:55;74.43;;;68.40;;
5710;SDS011;61291;52.524;13.422;2023-05-10T07:22:20;73.30;;;68.33;;
5710;SDS011;61291;52.524;13.422;2023-05-10T07:24:46;72.50;;;66.93;;
5710;SDS011;61291;52.524;13.422;2023-05-10T07:27:11;74.27;;;67.87;;
5710;SDS011;61291;52.524;13.422;2023-05-10T07:29:38;74.93;;;69.23;;
5710;SDS011;61291;52.524;13.422;2023-05-10T07:32:03;76.53;;;70.70;;
5710;SDS011;61291;52.524;13.422;2023-05-10T07:34:29;77.53;;;71.50;;
5710;SDS011;61291;52.524;13.422;2023-05-10T07:36:57;76.73;;;71.13;;
5710;SDS011;61291;52.524;13.422;2023-05-10T07:39:23;75.17;;;69.23;;
5710;SDS011;61291;52.524;13.422;2023-05-10T07:41:49;64.15;;;58.88;;
5710;SDS011;61291;52.524;13.422;2023-05-10T07:44:15;75.30;;;68.87;;
5710;SDS011;61291;52.524;13.422;2023-05-10T07:46:43;72.80;;;66.47;;
5710;SDS011;61291;52.524;13.422;2023-05-10T07:49:08;74.17;;;68.73;;
5710;SDS011;61291;52.524;13.422;2023-05-10T07:51:34;72.03;;;66.53;;
5710;SDS011;61291;52.524;13.422;2023-05-10T07:54:00;72.90;;;67.10;;
5710;SDS011;61291;52.524;13.422;2023-05-10T07:56:29;74.77;;;69.07;;
5710;SDS011;61291;52.524;13.422;2023-05-10T07:58:57;80.40;;;73.97;;
5710;SDS011;61291;52.524;13.422;2023-05-10T08:01:26;77.97;;;72.33;;
5710;SDS011;61291;52.524;13.422;2023-05-10T08:03:55;75.37;;;69.87;;
5710;SDS011;61291;52.524;13.422;2023-05-10T08:06:21;79.43;;;73.53;;
5710;SDS011;61291;52.524;13.422;2023-05-10T08:08:47;75.97;;;70.57;;
5710;SDS011;61291;52.524;13.422;2023-05-10T08:11:18;82.23;;;76.43;;
5710;SDS011;61291;52.524;13.422;2023-05-10T08:13:45;81.40;;;75.20;;
5710;SDS011;61291;52.524;13.422;2023-05-10T08:16:11;77.00;;;71.50;;
5710;SDS011;61291;52.524;13.422;2023-05-10T08:18:37;85.73;;;79.50;;
5710;SDS011;61291;52.524;13.422;2023-05-10T08:21:03;83.27;;;77.57;;
5710;SDS011;61291;52.524;13.422;2023-05-10T08:23:29;82.27;;;76.83;;
5710;SDS011;61291;52.524;13.422;2023-05-10T08:25:54;74.80;;;69.70;;
5710;SDS011;61291;52.524;13.422;2023-05-10T08:28:20;76.20;;;70.70;;
5710;SDS011;61291;52.524;13.422;2023-05-10T08:30:45;76.03;;;70.70;;
5710;SDS011;61291;52.524;13.422;2023-05-10T08:33:11;77.10;;;71.60;;
5710;SDS011;61291;52.524;13.422;2023-05-10T08:35:36;80.00;;;73.93;;
5710;SDS011;61291;52.524;13.422;2023-05-10T08:38:02;80.83;;;75.43;;
5710;SDS011;61291;52.524;13.422;2023-05-10T08:40:27;82.07;;;76.17;;
5710;SDS011;61291;52.524;13.422;2023-05-10T08:43:10;79.33;;;73.67;;
5710;SDS011;61291;52.524;13.422;2023-05-10T08:45:38;79.63;;;73.53;;
5710;SDS011;61291;52.524;13.422;2023-05-10T08:48:05;74.43;;;67.30;;
5710;SDS011;61291;52.524;13.422;2023-05-10T08:50:33;80.67;;;74.90;;
5710;SDS011;61291;52.524;13.422;2023-05-10T08:53:03;73.53;;;67.60;;
5710;SDS011;61291;52.524;13.422;2023-05-10T08:55:31;77.53;;;71.77;;
5710;SDS011;61291;52.524;13.422;2023-05-10T08:57:58;75.43;;;69.77;;
5710;SDS011;61291;52.524;13.422;2023-05-10T09:00:24;81.37;;;75.63;;
5710;SDS011;61291;52.524;13.422;2023-05-10T09:02:51;79.60;;;73.77;;
5710;SDS011;61291;52.524;13.422;2023-05-10T09:05:17;84.87;;;78.07;;
5710;SDS011;61291;52.524;13.422;2023-05-10T09:07:42;77.17;;;71.20;;
5710;SDS011;61291;52.524;13.422;2023-05-10T09:10:08;77.97;;;71.73;;
5710;SDS011;61291;52.524;13.422;2023-05-10T09:12:35;78.40;;;72.90;;
5710;SDS011;61291;52.524;13.422;2023-05-10T09:15:01;79.07;;;73.13;;
5710;SDS011;61291;52.524;13.422;2023-05-10T09:17:28;77.93;;;71.10;;
5710;SDS011;61291;52.524;13.422;2023-05-10T09:20:01;74.33;;;68.97;;
5710;SDS011;61291;52.524;13.422;2023-05-10T09:22:29;77.03;;;71.63;;
5710;SDS011;61291;52.524;13.422;2023-05-10T09:25:08;78.13;;;72.57;;
5710;SDS011;61291;52.524;13.422;2023-05-10T09:27:34;71.50;;;66.30;;
5710;SDS011;61291;52.524;13.422;2023-05-10T09:30:01;71.40;;;66.40;;
5710;SDS011;61291;52.524;13.422;2023-05-10T09:32:45;75.07;;;69.63;;
5710;SDS011;61291;52.524;13.422;2023-05-10T09:35:15;77.10;;;71.70;;
5710;SDS011;61291;52.524;13.422;2023-05-10T09:37:47;68.50;;;63.10;;
5710;SDS011;61291;52.524;13.422;2023-05-10T09:40:14;74.87;;;69.57;;
5710;SDS011;61291;52.524;13.422;2023-05-10T09:45:26;74.30;;;69.10;;
5710;SDS011;61291;52.524;13.422;2023-05-10T09:47:54;81.13;;;75.53;;
5710;SDS011;61291;52.524;13.422;2023-05-10T09:50:20;72.73;;;67.53;;
5710;SDS011;61291;52.524;13.422;2023-05-10T09:52:50;80.37;;;74.87;;
5710;SDS011;61291;52.524;13.422;2023-05-10T09:55:18;83.20;;;77.70;;
5710;SDS011;61291;52.524;13.422;2023-05-10T09:57:45;76.57;;;71.03;;
5710;SDS011;61291;52.524;13.422;2023-05-10T10:00:16;78.03;;;71.67;;
5710;SDS011;61291;52.524;13.422;2023-05-10T10:02:46;77.03;;;70.40;;
5710;SDS011;61291;52.524;13.422;2023-05-10T10:05:13;75.23;;;70.23;;
5710;SDS011;61291;52.524;13.422;2023-05-10T10:07:39;75.23;;;70.13;;
5710;SDS011;61291;52.524;13.422;2023-05-10T10:10:04;73.50;;;67.80;;
5710;SDS011;61291;52.524;13.422;2023-05-10T10:12:36;69.00;;;64.10;;
5710;SDS011;61291;52.524;13.422;2023-05-10T10:15:02;63.57;;;58.87;;
5710;SDS011;61291;52.524;13.422;2023-05-10T10:17:29;73.70;;;68.70;;
5710;SDS011;61291;52.524;13.422;2023-05-10T10:19:57;74.03;;;67.87;;
5710;SDS011;61291;52.524;13.422;2023-05-10T10:22:24;75.50;;;69.43;;
5710;SDS011;61291;52.524;13.422;2023-05-10T10:24:50;77.87;;;72.03;;
5710;SDS011;61291;52.524;13.422;2023-05-10T10:27:26;67.73;;;62.87;;
5710;SDS011;61291;52.524;13.422;2023-05-10T10:30:13;70.50;;;65.00;;
5710;SDS011;61291;52.524;13.422;2023-05-10T10:35:49;70.97;;;65.77;;
5710;SDS011;61291;52.524;13.422;2023-05-10T10:38:15;70.93;;;65.63;;
5710;SDS011;61291;52.524;13.422;2023-05-10T10:40:42;75.80;;;69.43;;
5710;SDS011;61291;52.524;13.422;2023-05-10T10:43:20;71.27;;;65.70;;
5710;SDS011;61291;52.524;13.422;2023-05-10T10:48:49;73.47;;;68.23;;
5710;SDS011;61291;52.524;13.422;2023-05-10T10:51:30;66.70;;;61.55;;
5710;SDS011;61291;52.524;13.422;2023-05-10T10:53:56;80.10;;;73.27;;
5710;SDS011;61291;52.524;13.422;2023-05-10T10:56:34;74.73;;;69.47;;
5710;SDS011;61291;52.524;13.422;2023-05-10T10:59:00;67.57;;;62.67;;
5710;SDS011;61291;52.524;13.422;2023-05-10T11:01:26;78.93;;;73.57;;
5710;SDS011;61291;52.524;13.422;2023-05-10T11:06:29;86.23;;;80.10;;
5710;SDS011;61291;52.524;13.422;2023-05-10T11:08:56;76.63;;;71.30;;
5710;SDS011;61291;52.524;13.422;2023-05-10T11:11:22;77.97;;;72.63;;
5710;SDS011;61291;52.524;13.422;2023-05-10T11:13:48;76.93;;;71.53;;
5710;SDS011;61291;52.524;13.422;2023-05-10T11:16:17;77.93;;;71.73;;
5710;SDS011;61291;52.524;13.422;2023-05-10T11:18:52;76.50;;;68.97;;
5710;SDS011;61291;52.524;13.422;2023-05-10T11:21:18;74.57;;;69.27;;
5710;SDS011;61291;52.524;13.422;2023-05-10T11:26:10;93.97;;;86.20;;
5710;SDS011;61291;52.524;13.422;2023-05-10T11:28:43;92.53;;;85.37;;
5710;SDS011;61291;52.524;13.422;2023-05-10T11:31:09;74.67;;;69.30;;
5710;SDS011;61291;52.524;13.422;2023-05-10T11:33:47;80.60;;;75.10;;
5710;SDS011;61291;52.524;13.422;2023-05-10T11:36:13;78.17;;;73.10;;
5710;SDS011;61291;52.524;13.422;2023-05-10T11:38:40;76.10;;;70.73;;
5710;SDS011;61291;52.524;13.422;2023-05-10T11:41:07;82.00;;;75.70;;
5710;SDS011;61291;52.524;13.422;2023-05-10T11:43:35;73.80;;;68.40;;
5710;SDS011;61291;52.524;13.422;2023-05-10T11:46:03;76.10;;;70.70;;
5710;SDS011;61291;52.524;13.422;2023-05-10T11:48:32;73.50;;;67.30;;
5710;SDS011;61291;52.524;13.422;2023-05-10T11:50:57;76.33;;;70.50;;
5710;SDS011;61291;52.524;13.422;2023-05-10T11:53:25;78.77;;;73.27;;
5710;SDS011;61291;52.524;13.422;2023-05-10T11:55:52;80.30;;;74.30;;
5710;SDS011;61291;52.524;13.422;2023-05-10T11:58:17;78.67;;;72.40;;
5710;SDS011;61291;52.524;13.422;2023-05-10T12:00:43;80.33;;;73.90;;
5710;SDS011;61291;52.524;13.422;2023-05-10T12:03:10;77.97;;;72.50;;
5710;SDS011;61291;52.524;13.422;2023-05-10T12:05:36;75.07;;;69.50;;
5710;SDS011;61291;52.524;13.422;2023-05-10T12:08:14;77.30;;;71.70;;
5710;SDS011;61291;52.524;13.422;2023-05-10T12:10:40;74.90;;;69.33;;
5710;SDS011;61291;52.524;13.422;2023-05-10T12:13:13;79.57;;;73.57;;
5710;SDS011;61291;52.524;13.422;2023-05-10T12:15:39;81.53;;;75.40;;
5710;SDS011;61291;52.524;13.422;2023-05-10T12:18:05;80.77;;;75.17;;
5710;SDS011;61291;52.524;13.422;2023-05-10T12:20:31;82.90;;;76.47;;
5710;SDS011;61291;52.524;13.422;2023-05-10T12:22:57;83.77;;;76.87;;
5710;SDS011;61291;52.524;13.422;2023-05-10T12:25:24;81.03;;;75.37;;
5710;SDS011;61291;52.524;13.422;2023-05-10T12:27:55;80.20;;;74.57;;
5710;SDS011;61291;52.524;13.422;2023-05-10T12:30:23;78.90;;;73.10;;
5710;SDS011;61291;52.524;13.422;2023-05-10T12:32:50;78.30;;;71.83;;
5710;SDS011;61291;52.524;13.422;2023-05-10T12:35:16;77.30;;;71.93;;
5710;SDS011;61291;52.524;13.422;2023-05-10T12:37:42;86.57;;;79.97;;
5710;SDS011;61291;52.524;13.422;2023-05-10T12:40:09;79.90;;;74.00;;
5710;SDS011;61291;52.524;13.422;2023-05-10T12:42:38;85.83;;;79.93;;
5710;SDS011;61291;52.524;13.422;2023-05-10T12:45:05;70.22;;;65.22;;
5710;SDS011;61291;52.524;13.422;2023-05-10T12:47:32;81.03;;;74.83;;
5710;SDS011;61291;52.524;13.422;2023-05-10T12:49:58;84.20;;;78.13;;
5710;SDS011;61291;52.524;13.422;2023-05-10T12:52:25;78.20;;;72.55;;
5710;SDS011;61291;52.524;13.422;2023-05-10T12:54:50;80.53;;;74.60;;
5710;SDS011;61291;52.524;13.422;2023-05-10T12:57:21;81.63;;;75.70;;
5710;SDS011;61291;52.524;13.422;2023-05-10T12:59:54;71.93;;;66.93;;
5710;SDS011;61291;52.524;13.422;2023-05-10T13:02:19;82.50;;;76.70;;
5710;SDS011;61291;52.524;13.422;2023-05-10T13:04:46;71.80;;;66.60;;
5710;SDS011;61291;52.524;13.422;2023-05-10T13:07:12;76.83;;;70.90;;
5710;SDS011;61291;52.524;13.422;2023-05-10T13:09:39;79.30;;;73.60;;
5710;SDS011;61291;52.524;13.422;2023-05-10T13:12:05;79.03;;;72.87;;
5710;SDS011;61291;52.524;13.422;2023-05-10T13:14:30;77.63;;;71.83;;
5710;SDS011;61291;52.524;13.422;2023-05-10T13:16:56;81.87;;;76.17;;
5710;SDS011;61291;52.524;13.422;2023-05-10T13:19:22;73.67;;;67.93;;
5710;SDS011;61291;52.524;13.422;2023-05-10T13:21:47;73.90;;;68.20;;
5710;SDS011;61291;52.524;13.422;2023-05-10T13:24:13;75.50;;;70.03;;
5710;SDS011;61291;52.524;13.422;2023-05-10T13:26:39;73.37;;;68.60;;
5710;SDS011;61291;52.524;13.422;2023-05-10T13:29:05;77.33;;;72.00;;
5710;SDS011;61291;52.524;13.422;2023-05-10T13:31:31;71.50;;;66.23;;
5710;SDS011;61291;52.524;13.422;2023-05-10T13:33:57;73.23;;;67.70;;
5710;SDS011;61291;52.524;13.422;2023-05-10T13:36:22;74.60;;;69.50;;
5710;SDS011;61291;52.524;13.422;2023-05-10T13:38:48;73.60;;;68.50;;
5710;SDS011;61291;52.524;13.422;2023-05-10T13:41:13;73.10;;;68.10;;
5710;SDS011;61291;52.524;13.422;2023-05-10T13:43:39;77.43;;;71.83;;
5710;SDS011;61291;52.524;13.422;2023-05-10T13:46:04;75.40;;;69.70;;
5710;SDS011;61291;52.524;13.422;2023-05-10T13:48:30;81.70;;;75.60;;
5710;SDS011;61291;52.524;13.422;2023-05-10T13:50:56;81.10;;;75.30;;
5710;SDS011;61291;52.524;13.422;2023-05-10T13:53:21;76.53;;;70.70;;
5710;SDS011;61291;52.524;13.422;2023-05-10T13:55:47;81.00;;;75.07;;
5710;SDS011;61291;52.524;13.422;2023-05-10T13:58:14;75.93;;;70.77;;
5710;SDS011;61291;52.524;13.422;2023-05-10T14:00:39;61.57;;;57.47;;
5710;SDS011;61291;52.524;13.422;2023-05-10T14:03:05;73.83;;;68.53;;
5710;SDS011;61291;52.524;13.422;2023-05-10T14:05:31;74.70;;;69.63;;
5710;SDS011;61291;52.524;13.422;2023-05-10T14:07:57;78.20;;;72.73;;
5710;SDS011;61291;52.524;13.422;2023-05-10T14:10:23;74.60;;;69.80;;
5710;SDS011;61291;52.524;13.422;2023-05-10T14:12:49;77.27;;;72.27;;
5710;SDS011;61291;52.524;13.422;2023-05-10T14:15:15;77.93;;;71.93;;
5710;SDS011;61291;52.524;13.422;2023-05-10T14:17:40;75.70;;;69.90;;
5710;SDS011;61291;52.524;13.422;2023-05-10T14:20:06;71.77;;;66.90;;
5710;SDS011;61291;52.524;13.422;2023-05-10T14:22:32;73.40;;;68.60;;
5710;SDS011;61291;52.524;13.422;2023-05-10T14:24:58;73.83;;;68.70;;
5710;SDS011;61291;52.524;13.422;2023-05-10T14:27:23;72.93;;;67.93;;
5710;SDS011;61291;52.524;13.422;2023-05-10T14:29:49;74.80;;;69.37;;
5710;SDS011;61291;52.524;13.422;2023-05-10T14:32:14;76.17;;;70.70;;
5710;SDS011;61291;52.524;13.422;2023-05-10T14:34:40;76.33;;;71.53;;
5710;SDS011;61291;52.524;13.422;2023-05-10T14:37:05;72.40;;;67.57;;
5710;SDS011;61291;52.524;13.422;2023-05-10T14:39:31;71.40;;;65.77;;
5710;SDS011;61291;52.524;13.422;2023-05-10T14:41:58;69.90;;;65.00;;
5710;SDS011;61291;52.524;13.422;2023-05-10T14:44:23;63.65;;;59.15;;
5710;SDS011;61291;52.524;13.422;2023-05-10T14:46:49;70.80;;;65.80;;